Esadore Lake, Wisconsin
Current Conditions -  °F | °C
As of 7:35 AM on Friday 28 Nov 2014 (Local Time) from KMDZ Reporting Station
Overcast Overcast  
Wind Chill: -5°   Ceiling: 6000
Heat Index:   Visibility: 7mi
Dew Point:   Wind: 8mph
Humidity: 84%   Direction: 140°SE
Pressure: 30.06"   Gusts: NA
Location:  45.2044°N, 90.4212°W
Report Text: KMDZ 281335Z AUTO 14007KT 7SM OVC060 M13/M16 A3006 RMK AO2 T11341156
Loading
Personal Weather Stations






























Interactive Weather Map New forecast layout! Learn more

10-Day Weather Forecast

Advertisements
Track Severe Weather on mobile